createdAt,value
2018-03-31T00:01:45.577Z,61.28
2018-03-31T00:04:14.369Z,61.90
2018-03-31T00:06:43.117Z,62.45
2018-03-31T00:09:11.587Z,62.37
2018-03-31T00:11:40.354Z,62.22
2018-03-31T00:14:09.188Z,62.61
2018-03-31T00:16:38.002Z,62.93
2018-03-31T00:19:06.495Z,62.97
2018-03-31T00:21:35.394Z,62.84
2018-03-31T00:24:04.472Z,62.95
2018-03-31T00:26:32.988Z,62.94
2018-03-31T00:29:01.767Z,62.02
2018-03-31T00:31:30.554Z,61.35
2018-03-31T00:33:59.343Z,61.21
2018-03-31T00:36:28.318Z,61.27
2018-03-31T00:38:56.806Z,61.33
2018-03-31T00:41:25.556Z,60.90
2018-03-31T00:43:54.308Z,61.13
2018-03-31T00:46:23.060Z,61.25
2018-03-31T00:48:51.836Z,61.49
2018-03-31T00:51:20.767Z,61.66
2018-03-31T00:53:49.548Z,61.15
2018-03-31T00:56:18.593Z,61.53
2018-03-31T00:58:47.398Z,61.77
2018-03-31T01:01:15.882Z,61.84
2018-03-31T01:03:44.699Z,61.51
2018-03-31T01:06:13.448Z,62.05
2018-03-31T01:08:42.230Z,62.31
2018-03-31T01:11:11.481Z,62.44
2018-03-31T01:13:40.280Z,62.16
2018-03-31T01:16:09.036Z,62.68
2018-03-31T01:18:37.852Z,63.15
2018-03-31T01:21:06.651Z,62.85
2018-03-31T01:23:35.517Z,63.04
2018-03-31T01:26:04.331Z,63.19
2018-03-31T01:28:33.127Z,63.44
2018-03-31T01:31:01.869Z,63.45
2018-03-31T01:33:30.637Z,63.97
2018-03-31T01:35:59.383Z,64.28
2018-03-31T01:38:27.860Z,64.34
2018-03-31T01:40:56.620Z,65.09
2018-03-31T01:43:25.369Z,65.47
2018-03-31T01:45:53.924Z,65.57
2018-03-31T01:48:22.666Z,66.17
2018-03-31T01:50:51.461Z,66.68
2018-03-31T01:53:20.312Z,67.06
2018-03-31T01:55:48.791Z,67.43
2018-03-31T01:58:17.555Z,67.77
2018-03-31T02:00:46.362Z,67.98
2018-03-31T02:03:15.151Z,67.40
2018-03-31T02:05:43.877Z,67.41
2018-03-31T02:08:12.402Z,67.27
2018-03-31T02:10:41.335Z,67.37
2018-03-31T02:13:09.836Z,67.65
2018-03-31T02:15:38.588Z,67.87
2018-03-31T02:18:07.343Z,68.17
2018-03-31T02:20:36.121Z,68.74
2018-03-31T02:23:04.895Z,69.57
2018-03-31T02:25:33.444Z,68.55
2018-03-31T02:28:02.210Z,68.34
2018-03-31T02:30:31.005Z,67.65
2018-03-31T02:32:59.811Z,67.13
2018-03-31T02:35:28.605Z,67.88
2018-03-31T02:37:57.338Z,68.20
2018-03-31T02:40:26.091Z,68.39
2018-03-31T02:42:54.878Z,68.56
2018-03-31T02:45:23.631Z,68.54
2018-03-31T02:47:52.411Z,68.71
2018-03-31T02:50:21.153Z,69.21
2018-03-31T02:52:50.077Z,69.88
2018-03-31T02:55:18.461Z,71.14
2018-03-31T02:57:47.284Z,71.75
2018-03-31T03:00:16.034Z,73.75
2018-03-31T03:02:44.590Z,74.54
2018-03-31T03:05:13.060Z,75.19
2018-03-31T03:07:41.846Z,75.64
2018-03-31T03:10:10.664Z,76.50
2018-03-31T03:12:39.430Z,76.75
2018-03-31T03:15:07.943Z,78.05
2018-03-31T03:17:36.733Z,79.45
2018-03-31T03:20:04.992Z,80.11
2018-03-31T03:22:33.179Z,80.90
2018-03-31T03:25:01.425Z,81.63
2018-03-31T03:27:29.610Z,82.16
2018-03-31T03:29:57.805Z,82.54
2018-03-31T03:32:25.981Z,83.05
2018-03-31T03:34:54.234Z,83.56
2018-03-31T03:37:22.458Z,84.13
2018-03-31T03:39:50.711Z,84.19
2018-03-31T03:42:18.999Z,84.74
2018-03-31T03:44:47.218Z,85.51
2018-03-31T03:47:15.452Z,86.11
2018-03-31T03:49:43.664Z,86.37
2018-03-31T03:52:11.892Z,86.58
2018-03-31T03:54:40.115Z,86.63
2018-03-31T03:57:08.321Z,86.93
2018-03-31T03:59:36.583Z,87.59
2018-03-31T04:02:04.796Z,87.59
2018-03-31T04:04:33.043Z,87.49
2018-03-31T04:07:01.024Z,87.97
2018-03-31T04:09:29.035Z,88.37
2018-03-31T04:11:57.246Z,88.50
2018-03-31T04:14:25.473Z,89.00
2018-03-31T04:16:53.749Z,89.46
2018-03-31T04:19:22.116Z,89.15
2018-03-31T04:21:50.330Z,89.32
2018-03-31T04:24:18.567Z,89.25
2018-03-31T04:26:46.758Z,89.17
2018-03-31T04:29:14.977Z,89.18
2018-03-31T04:31:44.030Z,89.15
2018-03-31T04:34:12.267Z,89.89
2018-03-31T04:36:40.463Z,90.15
2018-03-31T04:39:08.752Z,90.62
2018-03-31T04:41:37.014Z,91.25
2018-03-31T04:44:05.598Z,91.52
2018-03-31T04:46:33.903Z,92.08
2018-03-31T04:49:02.121Z,92.37
2018-03-31T04:51:30.134Z,92.96
2018-03-31T04:53:58.086Z,93.55
2018-03-31T04:56:26.458Z,93.46
2018-03-31T04:58:54.799Z,92.94
2018-03-31T05:01:23.037Z,90.80
2018-03-31T05:03:52.136Z,89.43
2018-03-31T05:06:20.298Z,88.65
2018-03-31T05:08:48.309Z,88.19
2018-03-31T05:11:16.799Z,87.29
2018-03-31T05:13:44.781Z,86.30
2018-03-31T11:51:14.458Z,56.98
2018-03-31T11:53:42.423Z,57.05
2018-03-31T11:56:10.440Z,57.37
2018-03-31T11:58:38.340Z,57.83
2018-03-31T12:01:06.057Z,57.85
2018-03-31T12:03:34.020Z,57.98
2018-03-31T12:06:01.917Z,57.92
2018-03-31T12:08:29.844Z,57.96
2018-03-31T12:10:57.725Z,58.00
2018-03-31T12:13:25.610Z,57.62
2018-03-31T12:15:53.533Z,57.32
2018-03-31T12:18:21.408Z,57.54
2018-03-31T12:20:49.304Z,57.22
2018-03-31T12:23:17.197Z,57.18
2018-03-31T12:25:45.138Z,57.20
2018-03-31T12:28:13.021Z,57.19
2018-03-31T12:30:40.935Z,56.79
2018-03-31T12:33:08.965Z,56.92
2018-03-31T12:35:36.851Z,57.12
2018-03-31T12:38:04.748Z,57.14
2018-03-31T12:40:33.971Z,56.67
2018-03-31T12:43:01.969Z,56.56
2018-03-31T12:45:29.912Z,56.33
2018-03-31T12:47:57.795Z,57.10
2018-03-31T12:50:25.689Z,57.34
2018-03-31T12:52:53.578Z,57.81
2018-03-31T12:55:21.519Z,57.79
2018-03-31T12:57:49.420Z,58.00
2018-03-31T13:00:17.332Z,57.87
2018-03-31T13:02:45.248Z,57.62
2018-03-31T13:05:13.132Z,57.58
2018-03-31T13:07:41.047Z,57.75
2018-03-31T13:10:08.947Z,57.70
2018-03-31T13:12:36.827Z,58.74
2018-03-31T13:15:04.534Z,59.63
2018-03-31T13:17:32.444Z,60.34
2018-03-31T13:20:00.332Z,61.17
2018-03-31T13:22:28.283Z,62.30
2018-03-31T13:24:56.160Z,62.90
2018-03-31T13:27:24.156Z,63.32
2018-03-31T13:29:52.033Z,63.83
2018-03-31T13:32:19.952Z,64.18
2018-03-31T13:34:47.868Z,64.28
2018-03-31T13:37:15.836Z,64.50
2018-03-31T13:39:43.741Z,62.99
2018-03-31T13:42:11.501Z,60.26
2018-03-31T13:44:39.419Z,60.83
2018-03-31T13:47:07.567Z,60.47
2018-03-31T13:49:35.449Z,60.07
2018-03-31T13:52:03.367Z,60.01
2018-03-31T13:54:31.248Z,59.57
2018-03-31T13:56:59.248Z,59.92
2018-03-31T13:59:27.148Z,59.85
2018-03-31T14:01:55.037Z,59.79
2018-03-31T14:04:22.960Z,60.04
2018-03-31T14:06:50.859Z,59.96
2018-03-31T14:09:18.748Z,59.91
2018-03-31T14:11:46.461Z,59.66
2018-03-31T14:14:14.354Z,59.21
2018-03-31T14:16:42.253Z,59.03
2018-03-31T14:19:10.143Z,58.58
2018-03-31T14:21:38.027Z,58.32
2018-03-31T14:24:05.947Z,58.24
2018-03-31T14:26:33.835Z,57.69
2018-03-31T14:29:01.832Z,56.28
2018-03-31T14:31:29.769Z,55.93
2018-03-31T14:33:57.678Z,56.43
2018-03-31T14:36:25.566Z,56.66
2018-03-31T14:38:53.484Z,56.86
2018-03-31T14:41:21.375Z,57.17
2018-03-31T14:43:49.290Z,57.64
2018-03-31T14:46:17.213Z,57.99
2018-03-31T14:48:45.105Z,58.21
2018-03-31T14:51:13.119Z,58.16
2018-03-31T14:53:41.053Z,58.56
2018-03-31T14:56:08.956Z,58.89
2018-03-31T14:58:36.940Z,58.99
2018-03-31T15:01:04.750Z,58.70
2018-03-31T15:03:32.746Z,58.47
2018-03-31T15:06:00.639Z,58.42
2018-03-31T15:08:28.526Z,58.43
2018-03-31T15:10:56.428Z,58.48
2018-03-31T15:13:24.339Z,58.56
2018-03-31T15:15:52.219Z,58.59
2018-03-31T15:18:20.122Z,58.56
2018-03-31T15:20:48.048Z,58.25
2018-03-31T15:23:15.956Z,58.42
2018-03-31T15:28:18.041Z,58.90
2018-03-31T15:30:45.972Z,58.91
2018-03-31T15:33:13.852Z,59.01
2018-03-31T15:35:41.755Z,59.03
2018-03-31T15:38:09.830Z,59.12
2018-03-31T15:40:37.736Z,58.96
2018-03-31T15:43:05.661Z,59.25
2018-03-31T15:45:33.544Z,59.57
2018-03-31T15:48:01.548Z,59.97
2018-03-31T15:50:29.433Z,59.99
2018-03-31T15:52:57.326Z,59.92
2018-03-31T15:55:25.307Z,59.84
2018-03-31T15:57:53.203Z,60.00
2018-03-31T16:00:21.096Z,60.14
2018-03-31T16:02:49.014Z,60.21
2018-03-31T16:05:16.908Z,60.20
2018-03-31T16:07:44.798Z,60.35
2018-03-31T16:10:12.720Z,60.37
2018-03-31T16:12:40.630Z,60.23
2018-03-31T16:15:08.508Z,60.22
2018-03-31T16:17:36.424Z,60.23
2018-03-31T16:20:04.804Z,60.16
2018-03-31T16:22:32.721Z,60.26
2018-03-31T16:25:00.636Z,60.49
2018-03-31T16:27:28.527Z,60.97
2018-03-31T16:29:56.457Z,61.81
2018-03-31T16:32:24.453Z,62.04
2018-03-31T16:34:52.356Z,62.31
2018-03-31T16:37:20.597Z,62.73
2018-03-31T16:39:48.814Z,62.99
2018-03-31T16:42:17.012Z,63.01
2018-03-31T16:44:45.279Z,63.00
2018-03-31T16:47:13.481Z,63.18
2018-03-31T16:49:41.720Z,63.26
2018-03-31T16:52:10.020Z,64.31
2018-03-31T16:54:38.208Z,65.33
2018-03-31T16:57:06.432Z,65.84
2018-03-31T16:59:34.675Z,66.35
2018-03-31T17:02:02.857Z,66.50
2018-03-31T17:04:31.055Z,67.00
2018-03-31T17:06:59.243Z,67.05
2018-03-31T17:09:27.425Z,66.87
2018-03-31T17:11:55.654Z,67.17
2018-03-31T17:14:23.856Z,67.33
2018-03-31T17:16:52.016Z,67.17
2018-03-31T17:19:20.208Z,67.32
2018-03-31T17:21:48.525Z,67.55
2018-03-31T17:24:16.704Z,67.42
2018-03-31T17:26:44.891Z,67.58
2018-03-31T17:29:13.068Z,67.88
2018-03-31T17:31:41.322Z,68.04
2018-03-31T17:34:09.500Z,68.04
2018-03-31T17:36:37.801Z,68.13
2018-03-31T17:39:06.154Z,68.65
2018-03-31T17:41:34.628Z,68.50
2018-03-31T17:44:02.899Z,68.49
2018-03-31T17:46:31.080Z,68.45
2018-03-31T17:48:59.269Z,68.81
2018-03-31T17:51:27.451Z,68.81
2018-03-31T17:53:55.657Z,68.83
2018-03-31T17:56:23.850Z,69.10
2018-03-31T17:58:52.068Z,69.30
2018-03-31T18:01:20.251Z,69.68
2018-03-31T18:03:48.404Z,69.70
2018-03-31T18:06:16.595Z,69.54
2018-03-31T18:08:44.780Z,69.51
2018-03-31T18:11:12.956Z,69.79
2018-03-31T18:13:41.159Z,69.73
2018-03-31T18:16:09.519Z,69.83
2018-03-31T18:18:37.732Z,69.81
2018-03-31T18:21:05.936Z,69.70
2018-03-31T18:23:34.128Z,69.82
2018-03-31T18:26:02.349Z,70.07
2018-03-31T18:28:30.600Z,70.06
2018-03-31T18:30:58.931Z,70.32
2018-03-31T18:33:27.132Z,70.39
2018-03-31T18:35:55.365Z,70.96
2018-03-31T18:38:23.615Z,70.99
2018-03-31T18:40:51.923Z,70.96
2018-03-31T18:43:20.208Z,71.09
2018-03-31T18:45:48.371Z,71.27
2018-03-31T18:48:16.565Z,71.66
2018-03-31T18:50:44.844Z,72.05
2018-03-31T18:53:13.089Z,72.28
2018-03-31T18:55:41.303Z,72.55
2018-03-31T18:58:09.492Z,72.92
2018-03-31T19:00:37.715Z,73.23
2018-03-31T19:03:05.988Z,73.95
2018-03-31T19:05:34.191Z,74.17
2018-03-31T19:08:02.370Z,74.54
2018-03-31T19:10:30.540Z,75.09
2018-03-31T19:12:58.740Z,75.46
2018-03-31T19:15:26.924Z,76.28
2018-03-31T19:17:55.123Z,76.79
2018-03-31T19:20:23.312Z,77.66
2018-03-31T19:22:51.503Z,78.06
2018-03-31T19:25:25.126Z,78.58
2018-03-31T19:27:53.328Z,78.99
2018-03-31T19:30:21.319Z,80.36
2018-03-31T19:32:49.511Z,80.93
2018-03-31T19:35:17.714Z,81.81
2018-03-31T19:37:45.901Z,82.14
2018-03-31T19:40:14.112Z,82.92
2018-03-31T19:42:42.311Z,83.01
2018-03-31T19:45:10.571Z,83.34
2018-03-31T19:47:38.927Z,83.43
2018-03-31T19:50:07.115Z,83.79
2018-03-31T19:52:35.312Z,84.02
2018-03-31T19:55:03.704Z,83.97
2018-03-31T19:57:31.888Z,84.10
2018-03-31T20:00:00.076Z,84.60
2018-03-31T20:02:28.260Z,84.79
2018-03-31T20:04:56.478Z,84.66
2018-03-31T20:07:24.656Z,84.97
2018-03-31T20:09:52.841Z,84.77
2018-03-31T20:12:21.047Z,84.91
2018-03-31T20:14:49.232Z,85.30
2018-03-31T20:17:17.421Z,85.30
2018-03-31T20:19:45.383Z,85.26
2018-03-31T20:22:13.558Z,84.85
2018-03-31T20:24:41.787Z,84.92
2018-03-31T20:27:09.988Z,85.00
2018-03-31T20:29:38.188Z,84.71
2018-03-31T20:32:06.348Z,83.93
2018-03-31T20:34:34.307Z,83.23
2018-03-31T20:37:02.471Z,83.21
2018-03-31T20:39:30.688Z,83.31
2018-03-31T20:41:58.860Z,82.61
2018-03-31T20:44:27.053Z,82.53
2018-03-31T20:46:55.252Z,83.15
2018-03-31T20:49:23.424Z,83.31
2018-03-31T20:51:51.604Z,83.14
2018-03-31T20:54:19.776Z,83.93
2018-03-31T20:56:47.951Z,84.54
2018-03-31T20:59:16.121Z,84.58
2018-03-31T21:01:44.370Z,84.69
2018-03-31T21:04:12.532Z,84.90
2018-03-31T21:06:40.813Z,85.05
2018-03-31T21:09:08.984Z,85.20
2018-03-31T21:11:37.135Z,84.90
2018-03-31T21:14:05.312Z,84.89
2018-03-31T21:16:33.484Z,85.07
2018-03-31T21:19:01.659Z,85.32
2018-03-31T21:21:29.832Z,85.60
2018-03-31T21:23:58.004Z,85.32
2018-03-31T21:26:26.260Z,85.39
2018-03-31T21:28:54.512Z,85.19
2018-03-31T21:31:22.787Z,85.06
2018-03-31T21:33:50.968Z,85.47
2018-03-31T21:36:19.147Z,85.63
2018-03-31T21:38:47.304Z,84.72
2018-03-31T21:41:15.480Z,84.36
2018-03-31T21:43:43.751Z,84.86
2018-03-31T21:46:11.916Z,85.13
2018-03-31T21:48:40.140Z,85.21
2018-03-31T21:51:08.100Z,85.94
2018-03-31T21:53:36.280Z,86.43
2018-03-31T21:56:04.452Z,87.26
2018-03-31T21:58:32.620Z,86.89
2018-03-31T22:01:00.828Z,87.27
2018-03-31T22:03:29.115Z,87.08
2018-03-31T22:05:57.291Z,87.11
2018-03-31T22:08:25.668Z,87.46
2018-03-31T22:10:53.882Z,87.87
2018-03-31T22:13:27.671Z,88.12
2018-03-31T22:15:55.869Z,88.71
2018-03-31T22:18:24.042Z,89.22
2018-03-31T22:20:52.225Z,89.41
2018-03-31T22:23:20.959Z,89.62
2018-03-31T22:25:49.176Z,89.60
2018-03-31T22:28:17.413Z,89.83
2018-03-31T22:30:45.589Z,89.99
2018-03-31T22:33:13.911Z,89.94
2018-03-31T22:35:42.099Z,89.91
2018-03-31T22:38:10.376Z,89.83
2018-03-31T22:40:38.555Z,89.89
2018-03-31T22:43:06.759Z,89.82
2018-03-31T22:45:34.968Z,90.48
2018-03-31T22:48:03.147Z,90.90
2018-03-31T22:50:31.359Z,90.75
2018-03-31T22:52:59.553Z,90.70
2018-03-31T22:55:27.768Z,90.66
2018-03-31T22:57:56.059Z,90.84
2018-03-31T23:00:24.257Z,90.13
2018-03-31T23:02:52.528Z,89.73
2018-03-31T23:05:21.460Z,89.36
2018-03-31T23:07:50.220Z,89.27
2018-03-31T23:10:18.954Z,89.65
2018-03-31T23:12:47.756Z,89.48
2018-03-31T23:15:16.504Z,89.14
2018-03-31T23:17:45.257Z,89.19
2018-03-31T23:20:13.800Z,89.57
2018-03-31T23:22:43.029Z,89.68
2018-03-31T23:25:11.752Z,89.60
2018-03-31T23:27:40.516Z,89.72
2018-03-31T23:30:09.276Z,90.05
2018-03-31T23:32:38.013Z,90.14
2018-03-31T23:35:06.748Z,90.49
2018-03-31T23:37:35.496Z,90.52
2018-03-31T23:40:03.886Z,90.46
2018-03-31T23:42:32.063Z,90.11
2018-03-31T23:45:00.116Z,90.13
2018-03-31T23:47:28.080Z,89.73
2018-03-31T23:49:56.332Z,89.76
2018-03-31T23:52:24.520Z,89.16
2018-03-31T23:54:52.912Z,89.16
2018-03-31T23:57:21.102Z,89.29
2018-03-31T23:59:49.483Z,89.56
